Аэропорт: Иркутск. Иркутск

ICAO: UIII

METAR:
2018/05/20 23:00
UIII 202300Z 31008MPS CAVOK 03/M02 Q1020 R30/CLRD60 NOSIG RMK QFE720/0961
METAR:
2018/05/20 21:21
TAF UIII 202000Z 2021/2121 28005MPS 9999 SCT020CB 
      TEMPO 2021/2112 30010G15MPS 1300 SHSN BKN009CB